CheckWX is a tool to help pilots better visualize weather data.  It is not intended as a substitute for an official pre-flight weather briefing.

22:45:48 UTC

KYNG METAR
Youngstown-Warren Regional Airport
Youngstown/Warren, Ohio, USA
Current

55 mins ago

KYNG 082151Z 36009KT 10SM FEW050 18/03 A2968 RMK AO2 SLP046 T01830033
Observed
Apr-8 @ 21:51 UTC
Wind
  • 360° at 9 KTS
Visibility
Flight Rules
VFR
Cloud Levels
  • Few at 5,000' AGL
Temperature
18°C / 64°F
Dewpoint
C / 37°F
Humidity
37%
Altimeter
29.68" Hg
Pressure
1005.12 hPa
Previous

2 hours ago

KYNG 082051Z 32008KT 10SM FEW050 19/03 A2969 RMK AO2 SLP051 T01890033 56007
Observed
Apr-8 @ 20:51 UTC
Wind
  • 320° at 8 KTS
Visibility
Flight Rules
VFR
Cloud Levels
  • Few at 5,000' AGL
Temperature
19°C / 66°F
Dewpoint
C / 37°F
Humidity
35%
Altimeter
29.69" Hg
Pressure
1005.42 hPa
Previous

3 hours ago

KYNG 081951Z 33015G20KT 10SM FEW050 19/03 A2969 RMK AO2 SLP052 T01940033
Observed
Apr-8 @ 19:51 UTC
Wind
  • 330° at 15 KTS
  • Gusting to 20 KTS
Visibility
Flight Rules
VFR
Cloud Levels
  • Few at 5,000' AGL
Temperature
19°C / 66°F
Dewpoint
C / 37°F
Humidity
35%
Altimeter
29.69" Hg
Pressure
1005.42 hPa